Time;durP1;ratioP1;P1;durP2;ratioP2;P2;SDS_P1;SDS_P2;PMS_P1;PMS_P2;Temp;Humidity;BMP_temperature;BMP_pressure;BME280_temperature;BME280_humidity;BME280_pressure;Samples;Min_cycle;Max_cycle;Signal;HPM_P1;HPM_P2
2022/10/12 00:00:53;;;;;;;8.65;3.75;;;;;;;;;;5049752;28;20120;-64
2022/10/12 00:03:19;;;;;;;6.00;3.80;;;;;;;;;;5049453;28;20430;-65
2022/10/12 00:05:45;;;;;;;9.27;3.95;;;;;;;;;;5058798;28;20078;-65
2022/10/12 00:08:11;;;;;;;10.18;3.97;;;;;;;;;;5069424;28;20119;-64
2022/10/12 00:10:40;;;;;;;7.68;3.78;;;;;;;;;;5047121;28;20438;-64
2022/10/12 00:13:06;;;;;;;9.32;4.10;;;;;;;;;;5042698;28;20075;-64
2022/10/12 00:15:35;;;;;;;8.10;4.63;;;;;;;;;;5066565;28;20483;-64
2022/10/12 00:18:01;;;;;;;11.38;4.07;;;;;;;;;;5069454;28;20063;-64
2022/10/12 00:20:26;;;;;;;9.57;4.30;;;;;;;;;;5053668;28;20041;-64
2022/10/12 00:22:51;;;;;;;9.40;4.35;;;;;;;;;;5048090;28;20121;-64
2022/10/12 00:25:17;;;;;;;7.72;4.15;;;;;;;;;;5048574;28;20028;-64
2022/10/12 00:27:42;;;;;;;8.68;4.30;;;;;;;;;;5048670;28;20021;-64
2022/10/12 00:30:08;;;;;;;7.55;4.68;;;;;;;;;;5047176;28;20041;-64
2022/10/12 00:32:33;;;;;;;10.30;4.60;;;;;;;;;;5047905;28;20033;-64
2022/10/12 00:34:58;;;;;;;10.10;4.22;;;;;;;;;;5049156;28;20110;-64
2022/10/12 00:37:24;;;;;;;8.25;3.92;;;;;;;;;;5047834;28;20462;-64
2022/10/12 00:39:49;;;;;;;12.10;5.40;;;;;;;;;;5049066;28;20447;-64
2022/10/12 00:42:17;;;;;;;7.60;4.53;;;;;;;;;;5048209;28;20045;-64
2022/10/12 00:44:45;;;;;;;8.95;3.75;;;;;;;;;;5049452;28;20033;-64
2022/10/12 00:47:17;;;;;;;6.28;3.90;;;;;;;;;;5048861;28;20029;-64
2022/10/12 00:49:47;;;;;;;6.75;3.80;;;;;;;;;;5046550;28;20025;-64
2022/10/12 00:52:15;;;;;;;8.98;4.05;;;;;;;;;;5048370;28;20025;-64
2022/10/12 00:54:45;;;;;;;11.85;4.40;;;;;;;;;;5051168;28;20038;-64
2022/10/12 00:57:12;;;;;;;6.82;3.50;;;;;;;;;;5054330;28;20032;-64
2022/10/12 00:59:43;;;;;;;8.50;4.32;;;;;;;;;;5068033;28;20028;-64
2022/10/12 01:02:08;;;;;;;9.70;4.47;;;;;;;;;;5058933;28;20041;-64
2022/10/12 01:04:35;;;;;;;12.73;4.70;;;;;;;;;;5027235;28;20462;-64
2022/10/12 01:07:00;;;;;;;5.90;3.92;;;;;;;;;;5029208;28;20091;-64
2022/10/12 01:09:26;;;;;;;7.47;3.88;;;;;;;;;;5028315;28;20079;-64
2022/10/12 01:11:52;;;;;;;9.38;4.13;;;;;;;;;;5039825;28;20568;-64
2022/10/12 01:14:18;;;;;;;12.88;4.43;;;;;;;;;;5048267;28;20041;-64
2022/10/12 01:16:51;;;;;;;12.40;4.20;;;;;;;;;;5030583;28;20017;-64
2022/10/12 01:19:50;;;;;;;6.93;3.67;;;;;;;;;;5048493;28;20032;-64
2022/10/12 01:22:18;;;;;;;6.32;3.45;;;;;;;;;;5028303;28;20070;-64
2022/10/12 01:24:50;;;;;;;6.68;3.92;;;;;;;;;;5027810;28;20033;-64
2022/10/12 01:27:37;;;;;;;8.55;3.72;;;;;;;;;;5027960;28;20030;-64
2022/10/12 01:30:24;;;;;;;8.55;4.15;;;;;;;;;;5044250;28;20044;-64
2022/10/12 01:33:09;;;;;;;5.93;3.92;;;;;;;;;;5038740;28;20405;-64
2022/10/12 01:36:09;;;;;;;7.60;3.95;;;;;;;;;;5064491;28;20044;-64
2022/10/12 01:39:01;;;;;;;6.60;4.00;;;;;;;;;;5064552;28;20178;-64
2022/10/12 01:41:34;;;;;;;10.35;4.07;;;;;;;;;;5047880;28;20045;-64
2022/10/12 01:44:00;;;;;;;8.55;4.25;;;;;;;;;;5047856;28;20032;-64
2022/10/12 01:46:25;;;;;;;11.88;4.43;;;;;;;;;;5048138;28;20410;-64
2022/10/12 01:48:54;;;;;;;11.18;4.13;;;;;;;;;;5048164;28;20044;-64
2022/10/12 01:52:01;;;;;;;10.30;4.22;;;;;;;;;;5051389;28;20481;-64
2022/10/12 01:54:44;;;;;;;7.82;4.05;;;;;;;;;;5026968;28;20045;-64
2022/10/12 01:57:34;;;;;;;12.05;4.30;;;;;;;;;;5027555;28;20065;-64
2022/10/12 02:00:14;;;;;;;8.40;4.25;;;;;;;;;;5028000;28;20045;-64
2022/10/12 02:03:06;;;;;;;7.50;3.83;;;;;;;;;;5027733;28;20060;-64
2022/10/12 02:05:42;;;;;;;10.23;4.93;;;;;;;;;;5029944;28;20095;-64
2022/10/12 02:08:35;;;;;;;8.82;4.55;;;;;;;;;;5027403;28;20049;-64
2022/10/12 02:11:07;;;;;;;7.78;4.05;;;;;;;;;;5027630;28;20053;-64
2022/10/12 02:13:41;;;;;;;9.05;3.95;;;;;;;;;;5026105;28;20056;-64
2022/10/12 02:16:10;;;;;;;9.90;4.13;;;;;;;;;;5036011;28;20074;-64
2022/10/12 02:18:41;;;;;;;7.80;3.90;;;;;;;;;;5058669;28;20061;-64
2022/10/12 02:21:08;;;;;;;10.88;4.97;;;;;;;;;;5067169;28;20040;-64
2022/10/12 02:23:35;;;;;;;9.45;4.50;;;;;;;;;;5066535;28;20089;-64
2022/10/12 02:26:01;;;;;;;7.10;4.18;;;;;;;;;;5067248;28;20028;-64
2022/10/12 02:28:29;;;;;;;8.60;4.22;;;;;;;;;;5067230;28;20024;-64
2022/10/12 02:31:02;;;;;;;14.57;4.55;;;;;;;;;;5066830;28;20089;-64
2022/10/12 02:33:34;;;;;;;8.65;4.60;;;;;;;;;;5058894;28;20044;-64
2022/10/12 02:36:04;;;;;;;8.45;4.40;;;;;;;;;;5044235;28;20041;-64
2022/10/12 02:38:46;;;;;;;13.00;4.38;;;;;;;;;;5046686;28;20040;-64
2022/10/12 02:41:17;;;;;;;13.68;4.60;;;;;;;;;;5028890;28;20044;-64
2022/10/12 02:43:51;;;;;;;11.68;4.60;;;;;;;;;;5026854;28;20387;-64
2022/10/12 02:46:19;;;;;;;12.52;4.88;;;;;;;;;;5046269;28;20056;-64
2022/10/12 02:48:46;;;;;;;8.10;4.45;;;;;;;;;;5046493;28;20029;-64
2022/10/12 02:51:13;;;;;;;7.60;4.18;;;;;;;;;;5046539;28;20083;-64
2022/10/12 02:53:39;;;;;;;12.27;4.57;;;;;;;;;;5046537;28;20078;-64
2022/10/12 02:56:09;;;;;;;13.13;5.13;;;;;;;;;;5028654;28;20110;-64
2022/10/12 02:58:34;;;;;;;10.43;4.88;;;;;;;;;;5046545;28;20033;-64
2022/10/12 03:00:59;;;;;;;9.38;4.60;;;;;;;;;;5044974;28;20489;-64
2022/10/12 03:03:25;;;;;;;12.75;5.80;;;;;;;;;;5046255;28;20510;-64
2022/10/12 03:05:50;;;;;;;8.85;4.78;;;;;;;;;;5045559;28;20037;-64
2022/10/12 03:08:15;;;;;;;9.90;4.88;;;;;;;;;;5046158;28;20037;-64
2022/10/12 03:10:40;;;;;;;10.82;4.85;;;;;;;;;;5046291;28;20060;-64
2022/10/12 03:13:06;;;;;;;8.93;4.82;;;;;;;;;;5046662;28;20079;-64
2022/10/12 03:15:31;;;;;;;10.27;5.15;;;;;;;;;;5046098;28;20048;-64
2022/10/12 03:17:56;;;;;;;8.68;4.60;;;;;;;;;;5047184;28;20037;-64
2022/10/12 03:20:22;;;;;;;8.77;4.75;;;;;;;;;;5063387;28;20040;-64
2022/10/12 03:22:47;;;;;;;10.30;4.93;;;;;;;;;;5066156;28;20036;-64
2022/10/12 03:25:12;;;;;;;8.88;4.18;;;;;;;;;;5066700;28;20024;-64
2022/10/12 03:27:38;;;;;;;10.20;4.65;;;;;;;;;;5066300;28;20414;-64
2022/10/12 03:30:03;;;;;;;11.43;5.53;;;;;;;;;;5065724;28;20040;-64
2022/10/12 03:32:29;;;;;;;9.20;4.68;;;;;;;;;;5066204;28;20466;-64
2022/10/12 03:34:54;;;;;;;11.73;4.55;;;;;;;;;;5066314;28;20044;-64
2022/10/12 03:37:19;;;;;;;10.55;4.90;;;;;;;;;;5066304;28;20032;-64
2022/10/12 03:39:45;;;;;;;10.85;5.15;;;;;;;;;;5040532;28;20029;-64
2022/10/12 03:42:10;;;;;;;10.95;4.72;;;;;;;;;;5026157;28;20034;-64
2022/10/12 03:44:36;;;;;;;12.65;5.43;;;;;;;;;;5008533;28;20072;-64
2022/10/12 03:47:01;;;;;;;11.82;5.13;;;;;;;;;;5008417;28;20499;-64
2022/10/12 03:49:26;;;;;;;12.73;5.15;;;;;;;;;;5026759;28;20029;-64
2022/10/12 03:51:51;;;;;;;14.93;5.72;;;;;;;;;;5038779;28;20025;-64
2022/10/12 03:54:17;;;;;;;11.25;4.95;;;;;;;;;;5064109;28;20032;-64
2022/10/12 03:56:43;;;;;;;10.35;4.30;;;;;;;;;;5066046;28;20119;-64
2022/10/12 03:59:08;;;;;;;9.07;4.82;;;;;;;;;;5066146;28;20139;-64
2022/10/12 04:01:33;;;;;;;8.00;4.13;;;;;;;;;;5065324;28;20036;-63
2022/10/12 04:03:59;;;;;;;11.48;4.57;;;;;;;;;;5066923;28;20025;-64
2022/10/12 04:06:24;;;;;;;10.07;5.13;;;;;;;;;;5065377;28;20088;-64
2022/10/12 04:08:49;;;;;;;16.05;5.85;;;;;;;;;;5065746;28;20040;-64
2022/10/12 04:11:15;;;;;;;10.50;4.68;;;;;;;;;;5065839;28;20040;-64
2022/10/12 04:13:41;;;;;;;11.43;4.80;;;;;;;;;;5065298;28;20598;-64
2022/10/12 04:16:08;;;;;;;8.15;4.60;;;;;;;;;;5066531;28;20024;-64
2022/10/12 04:18:33;;;;;;;14.02;5.50;;;;;;;;;;5069522;28;20036;-64
2022/10/12 04:21:00;;;;;;;11.77;5.55;;;;;;;;;;5069293;28;20044;-64
2022/10/12 04:23:25;;;;;;;10.32;4.80;;;;;;;;;;5068771;28;20032;-64
2022/10/12 04:25:51;;;;;;;15.00;5.70;;;;;;;;;;5069539;28;20047;-64
2022/10/12 04:28:16;;;;;;;12.65;5.55;;;;;;;;;;5069766;28;20027;-64
2022/10/12 04:30:41;;;;;;;10.18;4.70;;;;;;;;;;5068784;28;20123;-64
2022/10/12 04:33:07;;;;;;;8.38;4.80;;;;;;;;;;5068817;28;20041;-64
2022/10/12 04:35:32;;;;;;;10.15;4.88;;;;;;;;;;5069336;28;20071;-64
2022/10/12 04:37:57;;;;;;;9.98;4.65;;;;;;;;;;5050753;28;20040;-64
2022/10/12 04:40:23;;;;;;;9.70;5.07;;;;;;;;;;5053498;28;20112;-64
2022/10/12 04:42:48;;;;;;;12.73;5.28;;;;;;;;;;5048877;28;20052;-64
2022/10/12 04:45:13;;;;;;;12.93;5.40;;;;;;;;;;5048992;28;20041;-64
2022/10/12 04:47:39;;;;;;;11.05;5.40;;;;;;;;;;5030730;28;20029;-64
2022/10/12 04:50:05;;;;;;;15.73;6.07;;;;;;;;;;5049206;28;20708;-64
2022/10/12 04:52:30;;;;;;;15.80;6.63;;;;;;;;;;5038566;28;20673;-64
2022/10/12 04:54:56;;;;;;;16.08;7.15;;;;;;;;;;5031308;28;20171;-64
2022/10/12 04:57:22;;;;;;;18.70;6.03;;;;;;;;;;5029072;28;20049;-64
2022/10/12 04:59:47;;;;;;;12.27;5.13;;;;;;;;;;5028920;28;20037;-64
2022/10/12 05:02:12;;;;;;;18.33;5.78;;;;;;;;;;5028670;28;20710;-64
2022/10/12 05:04:38;;;;;;;11.02;5.55;;;;;;;;;;5027514;28;20112;-64
2022/10/12 05:07:03;;;;;;;14.35;5.10;;;;;;;;;;5027840;28;20044;-64
2022/10/12 05:09:28;;;;;;;11.82;5.55;;;;;;;;;;5035398;28;20510;-64
2022/10/12 05:11:53;;;;;;;11.18;5.30;;;;;;;;;;5046456;28;20112;-64
2022/10/12 05:14:19;;;;;;;14.70;4.75;;;;;;;;;;5045457;28;20049;-64
2022/10/12 05:16:44;;;;;;;13.45;5.72;;;;;;;;;;5048800;28;20036;-64
2022/10/12 05:19:09;;;;;;;19.67;6.05;;;;;;;;;;5045393;28;20486;-64
2022/10/12 05:21:35;;;;;;;11.30;5.72;;;;;;;;;;5047237;28;20056;-64
2022/10/12 05:24:00;;;;;;;12.95;6.28;;;;;;;;;;5048047;28;20068;-64
2022/10/12 05:26:25;;;;;;;15.98;5.97;;;;;;;;;;5048390;28;20044;-64
2022/10/12 05:28:50;;;;;;;19.42;8.35;;;;;;;;;;5047073;28;20454;-64
2022/10/12 05:31:16;;;;;;;17.83;7.38;;;;;;;;;;5048654;28;20082;-64
2022/10/12 05:33:41;;;;;;;26.58;7.72;;;;;;;;;;5047572;28;20063;-64
2022/10/12 05:36:07;;;;;;;18.67;8.45;;;;;;;;;;5048120;28;20128;-64
2022/10/12 05:38:32;;;;;;;18.23;8.18;;;;;;;;;;5047561;28;20041;-64
2022/10/12 05:40:57;;;;;;;18.33;8.23;;;;;;;;;;5046807;28;20119;-64
2022/10/12 05:43:23;;;;;;;19.48;9.10;;;;;;;;;;5043981;28;20055;-64
2022/10/12 05:45:48;;;;;;;24.13;9.85;;;;;;;;;;5048247;28;20044;-64
2022/10/12 05:48:13;;;;;;;25.00;8.68;;;;;;;;;;5049153;28;20131;-64
2022/10/12 05:50:39;;;;;;;22.92;9.00;;;;;;;;;;5068015;28;20055;-64
2022/10/12 05:53:04;;;;;;;20.63;7.70;;;;;;;;;;5067675;28;20056;-64
2022/10/12 05:55:29;;;;;;;27.13;10.48;;;;;;;;;;5068179;28;20029;-64
2022/10/12 05:57:54;;;;;;;21.00;8.82;;;;;;;;;;5067294;28;20037;-64
2022/10/12 06:00:20;;;;;;;25.80;10.43;;;;;;;;;;5067642;28;20062;-64
2022/10/12 06:02:46;;;;;;;21.67;8.82;;;;;;;;;;5067592;28;20036;-64
2022/10/12 06:05:11;;;;;;;17.05;7.97;;;;;;;;;;5067266;28;20054;-64
2022/10/12 06:07:36;;;;;;;22.33;9.93;;;;;;;;;;5066776;28;20012;-64
2022/10/12 06:10:02;;;;;;;23.27;9.88;;;;;;;;;;5068068;28;20040;-64
2022/10/12 06:12:28;;;;;;;28.55;10.60;;;;;;;;;;5066573;28;20117;-64
2022/10/12 06:14:53;;;;;;;29.55;9.40;;;;;;;;;;5067551;28;20067;-64
2022/10/12 06:17:18;;;;;;;17.85;8.40;;;;;;;;;;5067362;28;20043;-64
2022/10/12 06:19:43;;;;;;;22.75;8.90;;;;;;;;;;5052860;28;20122;-64
2022/10/12 06:22:09;;;;;;;23.50;9.10;;;;;;;;;;5047706;28;20438;-64
2022/10/12 06:24:34;;;;;;;25.17;9.90;;;;;;;;;;5046779;28;20037;-64
2022/10/12 06:26:59;;;;;;;21.73;9.30;;;;;;;;;;5047344;28;20044;-64
2022/10/12 06:29:25;;;;;;;27.17;9.65;;;;;;;;;;5028951;28;20056;-64
2022/10/12 06:31:51;;;;;;;21.35;8.20;;;;;;;;;;5057422;28;20051;-64
2022/10/12 06:34:16;;;;;;;18.00;8.38;;;;;;;;;;5049586;28;20111;-64
2022/10/12 06:36:41;;;;;;;23.67;8.00;;;;;;;;;;5057771;28;20509;-64
2022/10/12 06:39:08;;;;;;;19.15;8.15;;;;;;;;;;5039940;28;20048;-64
2022/10/12 06:41:33;;;;;;;20.90;8.25;;;;;;;;;;5007077;28;20054;-64
2022/10/12 06:43:58;;;;;;;14.40;7.57;;;;;;;;;;5033715;28;20818;-64
2022/10/12 06:46:24;;;;;;;19.95;6.97;;;;;;;;;;5037316;28;20021;-64
2022/10/12 06:48:49;;;;;;;16.27;7.28;;;;;;;;;;5045739;28;20040;-64
2022/10/12 06:51:14;;;;;;;15.90;6.32;;;;;;;;;;5046345;28;20097;-64
2022/10/12 06:53:40;;;;;;;23.05;8.52;;;;;;;;;;5044379;28;20036;-64
2022/10/12 06:56:09;;;;;;;26.10;9.73;;;;;;;;;;5043770;28;20061;-64
2022/10/12 06:58:35;;;;;;;27.80;10.55;;;;;;;;;;5041156;28;20510;-63
2022/10/12 07:01:02;;;;;;;25.98;9.15;;;;;;;;;;5044306;28;21095;-64
2022/10/12 07:03:28;;;;;;;17.17;8.55;;;;;;;;;;5045222;28;20521;-64
2022/10/12 07:05:53;;;;;;;19.08;7.45;;;;;;;;;;5040911;28;20048;-64
2022/10/12 07:08:18;;;;;;;20.38;7.60;;;;;;;;;;5047765;28;20067;-64
2022/10/12 07:10:43;;;;;;;21.67;8.35;;;;;;;;;;5046438;28;20538;-64
2022/10/12 07:13:09;;;;;;;29.45;8.35;;;;;;;;;;5045160;28;20064;-64
2022/10/12 07:15:34;;;;;;;25.90;8.23;;;;;;;;;;5062333;28;20101;-64
2022/10/12 07:18:00;;;;;;;18.17;8.23;;;;;;;;;;5065738;28;20033;-64
2022/10/12 07:20:25;;;;;;;18.83;7.93;;;;;;;;;;5065923;28;20116;-64
2022/10/12 07:22:51;;;;;;;18.55;8.52;;;;;;;;;;5065820;28;20032;-64
2022/10/12 07:25:17;;;;;;;16.50;7.80;;;;;;;;;;5043677;28;20032;-64
2022/10/12 07:27:46;;;;;;;19.50;7.10;;;;;;;;;;5046458;28;20033;-64
2022/10/12 07:30:11;;;;;;;18.88;6.22;;;;;;;;;;5063491;28;20174;-64
2022/10/12 07:32:37;;;;;;;20.00;7.63;;;;;;;;;;5047969;28;20121;-64
2022/10/12 07:35:02;;;;;;;16.27;6.95;;;;;;;;;;5063037;28;20044;-64
2022/10/12 07:37:28;;;;;;;19.00;7.75;;;;;;;;;;5065684;28;20036;-64
2022/10/12 07:39:56;;;;;;;14.60;6.95;;;;;;;;;;5053789;28;20044;-64
2022/10/12 07:42:21;;;;;;;23.08;7.32;;;;;;;;;;5044337;28;20128;-64
2022/10/12 07:44:46;;;;;;;14.30;6.22;;;;;;;;;;5022072;28;20127;-64
2022/10/12 07:47:12;;;;;;;17.30;6.85;;;;;;;;;;5044319;28;20048;-64
2022/10/12 07:49:37;;;;;;;20.50;6.93;;;;;;;;;;5046560;28;20024;-64
2022/10/12 07:52:02;;;;;;;13.95;5.43;;;;;;;;;;5030381;28;20557;-64
2022/10/12 07:54:28;;;;;;;13.13;6.28;;;;;;;;;;5048543;28;20037;-64
2022/10/12 07:56:54;;;;;;;12.77;6.70;;;;;;;;;;5049710;28;20040;-64
2022/10/12 07:59:19;;;;;;;19.52;6.30;;;;;;;;;;5048218;28;20047;-64
2022/10/12 08:01:44;;;;;;;18.45;7.10;;;;;;;;;;5029754;28;20036;-64
2022/10/12 08:04:10;;;;;;;15.85;6.82;;;;;;;;;;5047999;28;20025;-64
2022/10/12 08:06:35;;;;;;;15.20;6.47;;;;;;;;;;5044327;28;20041;-64
2022/10/12 08:09:01;;;;;;;13.52;6.13;;;;;;;;;;5043669;28;20129;-64
2022/10/12 08:11:26;;;;;;;23.45;5.80;;;;;;;;;;5045085;28;20033;-64
2022/10/12 08:13:52;;;;;;;15.82;5.28;;;;;;;;;;5043353;28;20063;-64
2022/10/12 08:16:19;;;;;;;15.23;5.80;;;;;;;;;;5049739;28;20029;-64
2022/10/12 08:18:45;;;;;;;20.25;6.65;;;;;;;;;;5049148;28;20051;-64
2022/10/12 08:21:12;;;;;;;17.25;6.32;;;;;;;;;;5048083;28;20124;-64
2022/10/12 08:23:38;;;;;;;18.52;5.30;;;;;;;;;;5048519;28;20036;-64
2022/10/12 08:26:04;;;;;;;22.92;5.40;;;;;;;;;;5048173;28;20807;-64
2022/10/12 08:28:30;;;;;;;22.02;5.80;;;;;;;;;;5047439;28;20463;-64
2022/10/12 08:30:56;;;;;;;24.00;6.32;;;;;;;;;;5042794;28;20750;-64
2022/10/12 08:33:21;;;;;;;19.30;6.07;;;;;;;;;;5048133;28;20151;-64
2022/10/12 08:35:47;;;;;;;16.33;5.53;;;;;;;;;;5048187;28;20043;-64
2022/10/12 08:38:13;;;;;;;13.00;5.95;;;;;;;;;;5045144;28;20150;-64
2022/10/12 08:40:51;;;;;;;10.00;5.15;;;;;;;;;;5030646;28;20053;-64
2022/10/12 08:43:29;;;;;;;18.35;6.00;;;;;;;;;;5043980;28;20699;-64
2022/10/12 08:46:00;;;;;;;14.23;4.70;;;;;;;;;;5048699;28;20045;-64
2022/10/12 08:48:29;;;;;;;17.15;6.07;;;;;;;;;;5047483;28;20029;-64
2022/10/12 08:51:03;;;;;;;15.25;5.65;;;;;;;;;;5048042;28;20029;-64
2022/10/12 08:53:33;;;;;;;16.00;6.40;;;;;;;;;;5051972;28;20037;-64
2022/10/12 08:56:00;;;;;;;18.60;6.15;;;;;;;;;;5047900;28;20514;-64
2022/10/12 08:58:30;;;;;;;20.05;8.15;;;;;;;;;;5047713;28;20029;-64
2022/10/12 09:01:12;;;;;;;18.42;8.88;;;;;;;;;;5047502;28;20120;-64
2022/10/12 09:03:50;;;;;;;16.25;8.43;;;;;;;;;;5062036;28;20056;-64
2022/10/12 09:06:19;;;;;;;21.45;9.35;;;;;;;;;;5049696;28;20115;-64
2022/10/12 09:09:08;;;;;;;20.40;9.18;;;;;;;;;;5060450;28;20541;-64
2022/10/12 09:11:56;;;;;;;17.50;9.02;;;;;;;;;;5067981;28;20033;-65
2022/10/12 09:14:27;;;;;;;14.82;7.90;;;;;;;;;;5068156;28;20063;-64
2022/10/12 09:16:54;;;;;;;15.52;7.43;;;;;;;;;;5053380;28;20078;-64
2022/10/12 09:19:40;;;;;;;14.20;7.55;;;;;;;;;;5046116;28;20571;-64
2022/10/12 09:22:17;;;;;;;16.98;7.75;;;;;;;;;;5039767;28;20041;-64
2022/10/12 09:24:44;;;;;;;20.10;7.70;;;;;;;;;;5047430;28;20044;-64
2022/10/12 09:27:15;;;;;;;15.57;7.13;;;;;;;;;;5044393;28;20540;-64
2022/10/12 09:29:44;;;;;;;21.65;7.88;;;;;;;;;;5047006;28;20087;-64
2022/10/12 09:32:26;;;;;;;21.23;8.75;;;;;;;;;;5041283;28;20573;-64
2022/10/12 09:34:51;;;;;;;17.50;7.63;;;;;;;;;;5027705;28;20047;-64
2022/10/12 09:37:20;;;;;;;16.30;7.90;;;;;;;;;;5046774;28;20029;-64
2022/10/12 09:39:46;;;;;;;18.40;7.55;;;;;;;;;;5046201;28;20040;-64
2022/10/12 09:42:11;;;;;;;14.20;6.97;;;;;;;;;;5044479;28;20530;-64
2022/10/12 09:44:45;;;;;;;21.50;6.85;;;;;;;;;;5024262;28;20060;-64
2022/10/12 09:47:28;;;;;;;11.95;5.78;;;;;;;;;;5043464;28;20082;-64
2022/10/12 09:49:57;;;;;;;18.63;6.15;;;;;;;;;;5029399;28;20437;-64
2022/10/12 09:52:26;;;;;;;15.63;6.10;;;;;;;;;;5030158;28;20116;-64
2022/10/12 09:54:56;;;;;;;13.20;5.82;;;;;;;;;;5047582;28;20064;-64
2022/10/12 09:57:24;;;;;;;12.88;5.57;;;;;;;;;;5046011;28;20514;-64
2022/10/12 09:59:50;;;;;;;13.13;5.70;;;;;;;;;;5048593;28;20541;-64
2022/10/12 10:02:21;;;;;;;12.23;5.57;;;;;;;;;;5050685;28;20127;-64
2022/10/12 10:04:48;;;;;;;14.70;5.10;;;;;;;;;;5044756;28;20540;-64
2022/10/12 10:07:27;;;;;;;15.15;5.43;;;;;;;;;;5043822;28;20033;-64
2022/10/12 10:10:11;;;;;;;12.52;4.72;;;;;;;;;;5042387;28;20083;-64
2022/10/12 10:12:54;;;;;;;13.95;5.60;;;;;;;;;;5038301;28;20053;-65
2022/10/12 10:15:25;;;;;;;12.20;5.40;;;;;;;;;;5034855;28;20046;-64
2022/10/12 10:17:56;;;;;;;18.25;5.95;;;;;;;;;;5033310;28;20045;-65
2022/10/12 10:20:30;;;;;;;15.68;6.15;;;;;;;;;;5030770;28;20049;-65
2022/10/12 10:22:56;;;;;;;10.55;4.65;;;;;;;;;;5029517;28;20044;-65
2022/10/12 10:25:23;;;;;;;13.30;4.72;;;;;;;;;;5038307;28;20081;-64
2022/10/12 10:28:07;;;;;;;10.32;4.40;;;;;;;;;;5045663;28;20094;-65
2022/10/12 10:30:33;;;;;;;13.57;4.78;;;;;;;;;;5044607;28;20037;-64
2022/10/12 10:33:17;;;;;;;11.07;4.55;;;;;;;;;;5046183;28;20039;-65
2022/10/12 10:36:21;;;;;;;8.35;4.68;;;;;;;;;;5030987;28;20045;-64
2022/10/12 10:38:58;;;;;;;18.23;5.53;;;;;;;;;;5043202;28;20118;-65
2022/10/12 10:41:32;;;;;;;12.95;5.07;;;;;;;;;;5010846;28;20140;-64
2022/10/12 10:43:57;;;;;;;17.92;6.13;;;;;;;;;;5042414;28;20036;-65
2022/10/12 10:46:24;;;;;;;11.88;4.88;;;;;;;;;;5042731;28;20051;-64
2022/10/12 10:49:00;;;;;;;12.57;5.45;;;;;;;;;;5045840;28;20411;-65
2022/10/12 10:51:39;;;;;;;15.35;6.57;;;;;;;;;;5046067;28;20171;-64
2022/10/12 10:54:36;;;;;;;15.43;5.78;;;;;;;;;;5045945;28;20040;-65
2022/10/12 10:57:13;;;;;;;21.08;5.97;;;;;;;;;;5029405;28;20033;-65
2022/10/12 10:59:52;;;;;;;11.85;6.05;;;;;;;;;;5053094;28;20422;-65
2022/10/12 11:02:35;;;;;;;18.35;5.88;;;;;;;;;;5042669;28;20048;-64
2022/10/12 11:05:25;;;;;;;12.40;6.28;;;;;;;;;;5044050;28;20025;-65
2022/10/12 11:08:00;;;;;;;17.42;6.85;;;;;;;;;;5045896;28;20033;-64
2022/10/12 11:10:31;;;;;;;12.52;6.18;;;;;;;;;;5046475;28;20056;-64
2022/10/12 11:13:18;;;;;;;18.73;6.35;;;;;;;;;;5045901;28;20052;-64
2022/10/12 11:15:48;;;;;;;15.02;6.05;;;;;;;;;;5045570;28;20071;-65
2022/10/12 11:18:26;;;;;;;20.50;6.82;;;;;;;;;;5045779;28;20049;-64
2022/10/12 11:21:00;;;;;;;12.95;6.10;;;;;;;;;;5045306;28;20072;-64
2022/10/12 11:23:28;;;;;;;11.48;5.05;;;;;;;;;;5045486;28;20037;-64
2022/10/12 11:25:59;;;;;;;12.35;5.25;;;;;;;;;;5045240;28;20037;-65
2022/10/12 11:28:29;;;;;;;13.10;5.15;;;;;;;;;;5046108;28;20021;-64
2022/10/12 11:30:55;;;;;;;9.93;5.38;;;;;;;;;;5044540;28;20037;-64
2022/10/12 11:33:25;;;;;;;16.90;5.85;;;;;;;;;;5042385;28;20522;-64
2022/10/12 11:35:51;;;;;;;14.40;5.50;;;;;;;;;;5030847;28;20530;-64
2022/10/12 11:38:42;;;;;;;13.02;5.53;;;;;;;;;;5033604;28;20126;-65
2022/10/12 11:41:12;;;;;;;18.42;5.70;;;;;;;;;;5039997;28;20033;-65
2022/10/12 11:43:45;;;;;;;9.85;4.88;;;;;;;;;;5039795;28;20031;-64
2022/10/12 11:46:13;;;;;;;10.80;4.28;;;;;;;;;;5046233;28;20074;-64
2022/10/12 11:48:47;;;;;;;11.13;4.95;;;;;;;;;;5045117;28;20037;-64
2022/10/12 11:51:13;;;;;;;8.95;4.18;;;;;;;;;;5045762;28;20071;-65
2022/10/12 11:54:04;;;;;;;10.35;4.63;;;;;;;;;;5045463;28;20037;-65
2022/10/12 11:56:41;;;;;;;10.77;4.10;;;;;;;;;;5045777;28;20518;-65
2022/10/12 11:59:17;;;;;;;10.00;3.88;;;;;;;;;;5045394;28;20037;-65
2022/10/12 12:01:57;;;;;;;11.90;4.22;;;;;;;;;;5044490;28;20694;-65
2022/10/12 12:04:33;;;;;;;10.55;4.38;;;;;;;;;;5046051;28;20033;-65
2022/10/12 12:07:24;;;;;;;12.68;4.60;;;;;;;;;;5034615;28;20045;-64
2022/10/12 12:09:50;;;;;;;13.88;4.68;;;;;;;;;;5065779;28;20090;-64
2022/10/12 12:12:25;;;;;;;9.63;3.85;;;;;;;;;;5051685;28;20029;-64
2022/10/12 12:14:53;;;;;;;12.60;4.15;;;;;;;;;;5042194;28;20047;-65
2022/10/12 12:17:24;;;;;;;11.02;4.32;;;;;;;;;;5045820;28;20048;-64
2022/10/12 12:19:57;;;;;;;10.60;3.75;;;;;;;;;;5045796;28;20685;-65
2022/10/12 12:22:35;;;;;;;8.25;3.70;;;;;;;;;;5046459;28;20781;-64
2022/10/12 12:25:15;;;;;;;8.45;3.58;;;;;;;;;;5046074;28;20059;-65
2022/10/12 12:27:41;;;;;;;12.30;4.70;;;;;;;;;;5046900;28;20073;-65
2022/10/12 12:30:16;;;;;;;8.65;3.85;;;;;;;;;;5036638;28;20056;-64
2022/10/12 12:32:57;;;;;;;9.77;3.60;;;;;;;;;;5046284;28;20064;-64
2022/10/12 12:35:38;;;;;;;9.00;3.15;;;;;;;;;;5027905;28;20049;-65
2022/10/12 12:38:12;;;;;;;9.65;3.67;;;;;;;;;;5048378;28;20060;-65
2022/10/12 12:40:41;;;;;;;10.63;4.18;;;;;;;;;;5049494;28;20085;-65
2022/10/12 12:43:28;;;;;;;10.20;3.40;;;;;;;;;;5050172;28;20021;-64
2022/10/12 12:46:13;;;;;;;8.00;3.60;;;;;;;;;;5049896;28;20060;-65
2022/10/12 12:48:39;;;;;;;7.97;3.65;;;;;;;;;;5049524;28;20055;-65
2022/10/12 12:51:08;;;;;;;7.82;3.03;;;;;;;;;;5029215;28;20471;-64
2022/10/12 12:53:43;;;;;;;8.75;3.85;;;;;;;;;;5033683;28;20477;-65
2022/10/12 12:56:40;;;;;;;12.35;4.72;;;;;;;;;;5029043;28;20033;-64
2022/10/12 12:59:33;;;;;;;7.15;3.33;;;;;;;;;;5056637;28;20425;-65
2022/10/12 13:02:17;;;;;;;9.93;3.92;;;;;;;;;;5046019;28;20734;-64
2022/10/12 13:04:51;;;;;;;11.45;3.42;;;;;;;;;;5038734;28;20541;-64
2022/10/12 13:07:51;;;;;;;9.60;3.45;;;;;;;;;;5026691;28;20037;-64
2022/10/12 13:10:29;;;;;;;8.70;3.35;;;;;;;;;;5018804;28;20044;-64
2022/10/12 13:13:05;;;;;;;9.02;3.45;;;;;;;;;;5046735;28;20555;-64
2022/10/12 13:15:46;;;;;;;10.85;3.40;;;;;;;;;;5029604;28;20510;-64
2022/10/12 13:18:20;;;;;;;9.27;3.95;;;;;;;;;;5048487;28;20044;-64
2022/10/12 13:20:47;;;;;;;12.02;4.22;;;;;;;;;;5048413;28;20486;-64
2022/10/12 13:23:20;;;;;;;7.82;3.40;;;;;;;;;;5046603;28;20429;-65
2022/10/12 13:25:49;;;;;;;10.35;3.72;;;;;;;;;;5048552;28;20083;-64
2022/10/12 13:28:19;;;;;;;7.90;3.75;;;;;;;;;;5048890;28;20052;-64
2022/10/12 13:30:57;;;;;;;6.82;3.10;;;;;;;;;;5048253;28;20037;-64
2022/10/12 13:33:36;;;;;;;9.63;3.42;;;;;;;;;;5046949;28;20156;-65
2022/10/12 13:36:16;;;;;;;9.52;4.00;;;;;;;;;;5048412;28;20029;-64
2022/10/12 13:38:41;;;;;;;9.52;4.72;;;;;;;;;;5045994;28;20127;-64
2022/10/12 13:41:19;;;;;;;14.05;4.45;;;;;;;;;;5047020;28;20119;-64
2022/10/12 13:43:47;;;;;;;10.77;3.83;;;;;;;;;;5048263;28;20502;-65
2022/10/12 13:46:43;;;;;;;8.07;3.83;;;;;;;;;;5046928;28;20056;-64
2022/10/12 13:49:20;;;;;;;11.27;4.40;;;;;;;;;;5042478;28;20095;-64
2022/10/12 13:51:54;;;;;;;12.23;4.32;;;;;;;;;;5047798;28;20028;-65
2022/10/12 13:54:25;;;;;;;13.02;4.15;;;;;;;;;;5046953;28;20082;-64
2022/10/12 13:57:01;;;;;;;8.18;3.65;;;;;;;;;;5027131;28;20116;-64
2022/10/12 13:59:32;;;;;;;11.88;4.35;;;;;;;;;;5028325;28;20057;-65
2022/10/12 14:02:00;;;;;;;9.05;3.92;;;;;;;;;;5016932;28;20742;-64
2022/10/12 14:04:31;;;;;;;9.73;4.07;;;;;;;;;;5027525;28;20026;-65
2022/10/12 14:07:02;;;;;;;12.75;4.40;;;;;;;;;;5027426;28;20052;-65
2022/10/12 14:09:38;;;;;;;11.02;3.33;;;;;;;;;;5030832;28;20583;-65
2022/10/12 14:12:04;;;;;;;12.50;3.92;;;;;;;;;;5046865;28;20045;-64
2022/10/12 14:14:33;;;;;;;9.93;3.47;;;;;;;;;;5046041;28;20067;-65
2022/10/12 14:16:59;;;;;;;12.20;3.70;;;;;;;;;;5046649;28;20087;-64
2022/10/12 14:19:43;;;;;;;8.80;3.67;;;;;;;;;;5046687;28;20028;-65
2022/10/12 14:22:09;;;;;;;7.07;3.30;;;;;;;;;;5047916;28;20502;-65
2022/10/12 14:24:35;;;;;;;12.35;3.45;;;;;;;;;;5046512;28;20033;-65
2022/10/12 14:27:04;;;;;;;11.98;3.25;;;;;;;;;;5047138;28;20059;-65
2022/10/12 14:29:42;;;;;;;6.65;3.20;;;;;;;;;;5047124;28;20128;-65
2022/10/12 14:32:10;;;;;;;9.10;3.15;;;;;;;;;;5028158;28;20071;-65
2022/10/12 14:34:35;;;;;;;9.70;3.63;;;;;;;;;;5045984;28;20504;-65
2022/10/12 14:37:04;;;;;;;7.97;3.95;;;;;;;;;;5047135;28;20032;-64
2022/10/12 14:39:30;;;;;;;7.68;3.28;;;;;;;;;;5045886;28;20105;-65
2022/10/12 14:41:56;;;;;;;8.90;3.42;;;;;;;;;;5047106;28;20083;-64
2022/10/12 14:44:23;;;;;;;10.05;3.67;;;;;;;;;;5044639;28;20045;-65
2022/10/12 14:47:10;;;;;;;10.90;4.13;;;;;;;;;;5043125;28;20453;-64
2022/10/12 14:49:40;;;;;;;11.18;3.65;;;;;;;;;;5028352;28;20023;-64
2022/10/12 14:52:12;;;;;;;7.57;3.63;;;;;;;;;;5029347;28;20047;-64